Terminal Aerodrome Forecast
Issued by NWS

Home | Current Version | Previous Version | Text Only | Print | Product List | Glossary On
Versions: 1 2 3 4 5 6 7 8 9 10 11 12 13 14 15 16
000
FTUS44 KLZK 281300 AAA
TAFPBF
TAF AMD
KPBF 281336Z 2814/2912 00000KT P6SM SKC
     FM281700 15007KT P6SM SCT050
     FM290100 13002KT P6SM SKC=

USA.gov is the U.S. government's official web portal to all federal, state and local government web resources and services.